sensor_id;sensor_type;location;lat;lon;timestamp;pressure;altitude;pressure_sealevel;temperature;humidity
50632;BME280;49583;45.590;-122.498;2023-06-22T00:01:30;101415.52;;;26.68;35.24
50632;BME280;49583;45.590;-122.498;2023-06-22T00:03:43;101412.61;;;26.73;35.13
50632;BME280;49583;45.590;-122.498;2023-06-22T00:06:16;101412.60;;;26.76;35.01
50632;BME280;49583;45.590;-122.498;2023-06-22T00:08:40;101409.02;;;26.80;34.97
50632;BME280;49583;45.590;-122.498;2023-06-22T00:11:05;101407.59;;;26.84;34.85
50632;BME280;49583;45.590;-122.498;2023-06-22T00:13:24;101406.70;;;26.89;34.92
50632;BME280;49583;45.590;-122.498;2023-06-22T00:15:57;101402.70;;;26.92;34.49
50632;BME280;49583;45.590;-122.498;2023-06-22T00:18:30;101398.86;;;26.88;34.27
50632;BME280;49583;45.590;-122.498;2023-06-22T00:20:56;101392.70;;;26.78;34.37
50632;BME280;49583;45.590;-122.498;2023-06-22T00:23:30;101390.80;;;26.70;34.48
50632;BME280;49583;45.590;-122.498;2023-06-22T00:25:57;101394.10;;;26.70;34.83
50632;BME280;49583;45.590;-122.498;2023-06-22T00:28:30;101388.41;;;26.72;34.89
50632;BME280;49583;45.590;-122.498;2023-06-22T00:30:54;101383.23;;;26.75;35.12
50632;BME280;49583;45.590;-122.498;2023-06-22T00:33:22;101382.42;;;26.80;35.23
50632;BME280;49583;45.590;-122.498;2023-06-22T00:35:55;101379.20;;;26.86;35.33
50632;BME280;49583;45.590;-122.498;2023-06-22T00:38:23;101376.98;;;26.89;35.13
50632;BME280;49583;45.590;-122.498;2023-06-22T00:40:57;101372.48;;;26.89;34.80
50632;BME280;49583;45.590;-122.498;2023-06-22T00:43:20;101372.02;;;26.92;35.05
50632;BME280;49583;45.590;-122.498;2023-06-22T00:45:53;101367.42;;;26.94;35.15
50632;BME280;49583;45.590;-122.498;2023-06-22T00:48:22;101366.55;;;26.96;34.99
50632;BME280;49583;45.590;-122.498;2023-06-22T00:50:38;101364.88;;;26.99;34.85
50632;BME280;49583;45.590;-122.498;2023-06-22T00:53:12;101362.15;;;27.00;34.94
50632;BME280;49583;45.590;-122.498;2023-06-22T00:55:29;101361.48;;;27.01;34.97
50632;BME280;49583;45.590;-122.498;2023-06-22T00:57:46;101360.23;;;27.04;34.97
50632;BME280;49583;45.590;-122.498;2023-06-22T01:00:20;101358.63;;;27.07;35.06
50632;BME280;49583;45.590;-122.498;2023-06-22T01:02:36;101355.52;;;27.08;35.08
50632;BME280;49583;45.590;-122.498;2023-06-22T01:04:53;101352.35;;;27.07;35.16
50632;BME280;49583;45.590;-122.498;2023-06-22T01:07:14;101353.63;;;27.10;35.26
50632;BME280;49583;45.590;-122.498;2023-06-22T01:09:57;101352.45;;;27.09;34.94
50632;BME280;49583;45.590;-122.498;2023-06-22T01:12:22;101352.06;;;27.06;34.85
50632;BME280;49583;45.590;-122.498;2023-06-22T01:15:00;101347.53;;;27.03;34.69
50632;BME280;49583;45.590;-122.498;2023-06-22T01:17:35;101347.15;;;26.98;34.76
50632;BME280;49583;45.590;-122.498;2023-06-22T01:20:03;101349.56;;;26.95;35.09
50632;BME280;49583;45.590;-122.498;2023-06-22T01:22:20;101343.13;;;26.94;34.93
50632;BME280;49583;45.590;-122.498;2023-06-22T01:25:00;101346.02;;;26.91;35.00
50632;BME280;49583;45.590;-122.498;2023-06-22T01:27:47;101347.16;;;26.91;34.84
50632;BME280;49583;45.590;-122.498;2023-06-22T01:30:23;101344.06;;;26.87;35.04
50632;BME280;49583;45.590;-122.498;2023-06-22T01:32:38;101346.04;;;26.83;35.28
50632;BME280;49583;45.590;-122.498;2023-06-22T01:35:13;101344.04;;;26.80;35.43
50632;BME280;49583;45.590;-122.498;2023-06-22T01:37:40;101344.70;;;26.78;35.42
50632;BME280;49583;45.590;-122.498;2023-06-22T01:40:14;101343.96;;;26.76;35.55
50632;BME280;49583;45.590;-122.498;2023-06-22T01:42:33;101338.25;;;26.74;35.44
50632;BME280;49583;45.590;-122.498;2023-06-22T01:45:01;101337.38;;;26.71;35.25
50632;BME280;49583;45.590;-122.498;2023-06-22T01:47:27;101337.67;;;26.68;35.27
50632;BME280;49583;45.590;-122.498;2023-06-22T01:50:00;101335.23;;;26.64;35.60
50632;BME280;49583;45.590;-122.498;2023-06-22T01:52:33;101328.50;;;26.62;35.65
50632;BME280;49583;45.590;-122.498;2023-06-22T01:54:59;101330.42;;;26.59;35.97
50632;BME280;49583;45.590;-122.498;2023-06-22T01:57:33;101330.15;;;26.55;35.84
50632;BME280;49583;45.590;-122.498;2023-06-22T01:59:53;101330.30;;;26.51;35.86
50632;BME280;49583;45.590;-122.498;2023-06-22T02:02:36;101328.23;;;26.48;35.95
50632;BME280;49583;45.590;-122.498;2023-06-22T02:05:12;101326.66;;;26.45;36.28
50632;BME280;49583;45.590;-122.498;2023-06-22T02:07:49;101323.73;;;26.41;36.35
50632;BME280;49583;45.590;-122.498;2023-06-22T02:10:24;101324.39;;;26.39;36.21
50632;BME280;49583;45.590;-122.498;2023-06-22T02:12:50;101323.10;;;26.36;36.16
50632;BME280;49583;45.590;-122.498;2023-06-22T02:15:16;101320.16;;;26.33;36.21
50632;BME280;49583;45.590;-122.498;2023-06-22T02:17:45;101317.44;;;26.31;36.31
50632;BME280;49583;45.590;-122.498;2023-06-22T02:20:14;101318.21;;;26.26;36.32
50632;BME280;49583;45.590;-122.498;2023-06-22T02:22:30;101316.55;;;26.23;36.38
50632;BME280;49583;45.590;-122.498;2023-06-22T02:24:47;101314.79;;;26.20;36.46
50632;BME280;49583;45.590;-122.498;2023-06-22T02:27:21;101315.48;;;26.17;36.37
50632;BME280;49583;45.590;-122.498;2023-06-22T02:29:44;101314.89;;;26.12;36.61
50632;BME280;49583;45.590;-122.498;2023-06-22T02:32:12;101312.84;;;26.09;36.53
50632;BME280;49583;45.590;-122.498;2023-06-22T02:34:29;101312.30;;;26.05;36.79
50632;BME280;49583;45.590;-122.498;2023-06-22T02:36:47;101311.59;;;26.00;36.76
50632;BME280;49583;45.590;-122.498;2023-06-22T02:39:07;101310.90;;;25.96;36.84
50632;BME280;49583;45.590;-122.498;2023-06-22T02:41:41;101307.29;;;25.92;36.94
50632;BME280;49583;45.590;-122.498;2023-06-22T02:44:14;101302.52;;;25.86;36.92
50632;BME280;49583;45.590;-122.498;2023-06-22T02:46:30;101301.23;;;25.81;36.83
50632;BME280;49583;45.590;-122.498;2023-06-22T02:49:04;101299.67;;;25.72;36.77
50632;BME280;49583;45.590;-122.498;2023-06-22T02:51:38;101301.11;;;25.67;36.85
50632;BME280;49583;45.590;-122.498;2023-06-22T02:54:11;101299.77;;;25.61;36.97
50632;BME280;49583;45.590;-122.498;2023-06-22T02:56:37;101300.28;;;25.56;37.08
50632;BME280;49583;45.590;-122.498;2023-06-22T02:59:03;101292.64;;;25.52;37.12
50632;BME280;49583;45.590;-122.498;2023-06-22T03:01:25;101292.38;;;25.48;37.12
50632;BME280;49583;45.590;-122.498;2023-06-22T03:04:01;101294.27;;;25.44;37.30
50632;BME280;49583;45.590;-122.498;2023-06-22T03:06:25;101290.29;;;25.40;37.34
50632;BME280;49583;45.590;-122.498;2023-06-22T03:08:45;101290.30;;;25.37;37.52
50632;BME280;49583;45.590;-122.498;2023-06-22T03:11:01;101291.27;;;25.34;37.64
50632;BME280;49583;45.590;-122.498;2023-06-22T03:13:33;101288.05;;;25.29;37.72
50632;BME280;49583;45.590;-122.498;2023-06-22T03:15:57;101288.14;;;25.24;37.77
50632;BME280;49583;45.590;-122.498;2023-06-22T03:18:16;101285.96;;;25.19;37.88
50632;BME280;49583;45.590;-122.498;2023-06-22T03:20:47;101287.23;;;25.14;37.82
50632;BME280;49583;45.590;-122.498;2023-06-22T03:23:12;101289.68;;;25.09;37.86
50632;BME280;49583;45.590;-122.498;2023-06-22T03:25:45;101289.28;;;25.04;37.83
50632;BME280;49583;45.590;-122.498;2023-06-22T03:27:58;101287.13;;;24.98;37.92
50632;BME280;49583;45.590;-122.498;2023-06-22T03:30:23;101290.11;;;24.94;38.05
50632;BME280;49583;45.590;-122.498;2023-06-22T03:32:42;101292.79;;;24.89;37.98
50632;BME280;49583;45.590;-122.498;2023-06-22T03:35:18;101289.71;;;24.84;38.11
50632;BME280;49583;45.590;-122.498;2023-06-22T03:37:41;101288.83;;;24.79;38.14
50632;BME280;49583;45.590;-122.498;2023-06-22T03:40:14;101290.05;;;24.72;38.29
50632;BME280;49583;45.590;-122.498;2023-06-22T03:42:30;101287.16;;;24.67;38.27
50632;BME280;49583;45.590;-122.498;2023-06-22T03:44:55;101289.54;;;24.62;38.49
50632;BME280;49583;45.590;-122.498;2023-06-22T03:47:28;101286.83;;;24.55;38.56
50632;BME280;49583;45.590;-122.498;2023-06-22T03:50:02;101286.04;;;24.49;38.73
50632;BME280;49583;45.590;-122.498;2023-06-22T03:52:36;101287.32;;;24.43;38.76
50632;BME280;49583;45.590;-122.498;2023-06-22T03:55:00;101285.45;;;24.38;38.89
50632;BME280;49583;45.590;-122.498;2023-06-22T03:57:33;101281.98;;;24.33;38.97
50632;BME280;49583;45.590;-122.498;2023-06-22T03:59:57;101276.91;;;24.25;39.08
50632;BME280;49583;45.590;-122.498;2023-06-22T04:02:20;101278.80;;;24.19;39.24
50632;BME280;49583;45.590;-122.498;2023-06-22T04:04:54;101278.08;;;24.12;39.23
50632;BME280;49583;45.590;-122.498;2023-06-22T04:07:29;101282.35;;;24.05;39.27
50632;BME280;49583;45.590;-122.498;2023-06-22T04:10:03;101281.73;;;23.97;39.37
50632;BME280;49583;45.590;-122.498;2023-06-22T04:12:38;101280.74;;;23.89;39.55
50632;BME280;49583;45.590;-122.498;2023-06-22T04:15:12;101284.45;;;23.84;39.76
50632;BME280;49583;45.590;-122.498;2023-06-22T04:17:45;101284.68;;;23.78;39.75
50632;BME280;49583;45.590;-122.498;2023-06-22T04:20:18;101288.60;;;23.71;39.80
50632;BME280;49583;45.590;-122.498;2023-06-22T04:22:43;101288.42;;;23.64;39.94
50632;BME280;49583;45.590;-122.498;2023-06-22T04:25:17;101288.08;;;23.59;40.17
50632;BME280;49583;45.590;-122.498;2023-06-22T04:27:43;101286.96;;;23.55;40.21
50632;BME280;49583;45.590;-122.498;2023-06-22T04:30:17;101287.09;;;23.48;40.26
50632;BME280;49583;45.590;-122.498;2023-06-22T04:32:49;101288.38;;;23.40;40.48
50632;BME280;49583;45.590;-122.498;2023-06-22T04:35:12;101294.95;;;23.35;40.59
50632;BME280;49583;45.590;-122.498;2023-06-22T04:37:36;101290.75;;;23.30;40.73
50632;BME280;49583;45.590;-122.498;2023-06-22T04:39:50;101293.25;;;23.25;40.65
50632;BME280;49583;45.590;-122.498;2023-06-22T04:42:14;101292.00;;;23.20;40.83
50632;BME280;49583;45.590;-122.498;2023-06-22T04:44:47;101289.64;;;23.15;40.96
50632;BME280;49583;45.590;-122.498;2023-06-22T04:47:12;101290.10;;;23.08;41.14
50632;BME280;49583;45.590;-122.498;2023-06-22T04:49:45;101294.73;;;23.00;41.30
50632;BME280;49583;45.590;-122.498;2023-06-22T04:52:11;101296.04;;;22.94;41.25
50632;BME280;49583;45.590;-122.498;2023-06-22T04:54:51;101295.04;;;22.88;41.41
50632;BME280;49583;45.590;-122.498;2023-06-22T04:57:10;101295.15;;;22.83;41.61
50632;BME280;49583;45.590;-122.498;2023-06-22T04:59:34;101296.90;;;22.78;41.68
50632;BME280;49583;45.590;-122.498;2023-06-22T05:01:59;101298.35;;;22.73;41.72
50632;BME280;49583;45.590;-122.498;2023-06-22T05:04:32;101291.33;;;22.63;41.88
50632;BME280;49583;45.590;-122.498;2023-06-22T05:07:08;101295.20;;;22.58;41.99
50632;BME280;49583;45.590;-122.498;2023-06-22T05:09:42;101292.66;;;22.52;42.26
50632;BME280;49583;45.590;-122.498;2023-06-22T05:12:10;101291.78;;;22.47;42.30
50632;BME280;49583;45.590;-122.498;2023-06-22T05:14:44;101291.67;;;22.41;42.39
50632;BME280;49583;45.590;-122.498;2023-06-22T05:17:17;101293.05;;;22.35;42.40
50632;BME280;49583;45.590;-122.498;2023-06-22T05:19:50;101296.98;;;22.29;42.54
50632;BME280;49583;45.590;-122.498;2023-06-22T05:22:23;101294.70;;;22.22;42.63
50632;BME280;49583;45.590;-122.498;2023-06-22T05:24:56;101294.77;;;22.17;42.65
50632;BME280;49583;45.590;-122.498;2023-06-22T05:27:29;101297.73;;;22.12;42.81
50632;BME280;49583;45.590;-122.498;2023-06-22T05:29:55;101299.09;;;22.07;42.95
50632;BME280;49583;45.590;-122.498;2023-06-22T05:32:28;101295.27;;;22.02;43.01
50632;BME280;49583;45.590;-122.498;2023-06-22T05:35:01;101293.20;;;21.96;43.18
50632;BME280;49583;45.590;-122.498;2023-06-22T05:37:34;101292.25;;;21.89;43.28
50632;BME280;49583;45.590;-122.498;2023-06-22T05:40:09;101297.34;;;21.84;43.24
50632;BME280;49583;45.590;-122.498;2023-06-22T05:42:26;101292.74;;;21.78;43.40
50632;BME280;49583;45.590;-122.498;2023-06-22T05:44:59;101295.12;;;21.73;43.50
50632;BME280;49583;45.590;-122.498;2023-06-22T05:47:32;101294.70;;;21.69;43.61
50632;BME280;49583;45.590;-122.498;2023-06-22T05:50:06;101296.64;;;21.62;43.60
50632;BME280;49583;45.590;-122.498;2023-06-22T05:52:36;101299.81;;;21.57;43.63
50632;BME280;49583;45.590;-122.498;2023-06-22T05:55:09;101297.79;;;21.54;43.74
50632;BME280;49583;45.590;-122.498;2023-06-22T05:57:23;101302.30;;;21.51;43.91
50632;BME280;49583;45.590;-122.498;2023-06-22T05:59:55;101306.16;;;21.47;43.96
50632;BME280;49583;45.590;-122.498;2023-06-22T06:02:28;101308.54;;;21.43;43.92
50632;BME280;49583;45.590;-122.498;2023-06-22T06:04:54;101311.09;;;21.36;44.17
50632;BME280;49583;45.590;-122.498;2023-06-22T06:07:19;101306.34;;;21.27;44.09
50632;BME280;49583;45.590;-122.498;2023-06-22T06:09:45;101305.63;;;21.21;44.28
50632;BME280;49583;45.590;-122.498;2023-06-22T06:12:09;101307.90;;;21.17;44.46
50632;BME280;49583;45.590;-122.498;2023-06-22T06:14:32;101305.86;;;21.12;44.63
50632;BME280;49583;45.590;-122.498;2023-06-22T06:17:06;101301.16;;;21.06;44.77
50632;BME280;49583;45.590;-122.498;2023-06-22T06:19:39;101299.08;;;21.00;44.88
50632;BME280;49583;45.590;-122.498;2023-06-22T06:22:12;101295.73;;;20.95;44.89
50632;BME280;49583;45.590;-122.498;2023-06-22T06:24:25;101297.35;;;20.91;44.99
50632;BME280;49583;45.590;-122.498;2023-06-22T06:26:58;101297.58;;;20.86;45.24
50632;BME280;49583;45.590;-122.498;2023-06-22T06:29:22;101299.30;;;20.82;45.31
50632;BME280;49583;45.590;-122.498;2023-06-22T06:31:55;101294.95;;;20.77;45.37
50632;BME280;49583;45.590;-122.498;2023-06-22T06:34:21;101299.16;;;20.73;45.49
50632;BME280;49583;45.590;-122.498;2023-06-22T06:36:54;101298.16;;;20.67;45.63
50632;BME280;49583;45.590;-122.498;2023-06-22T06:39:21;101296.48;;;20.62;45.73
50632;BME280;49583;45.590;-122.498;2023-06-22T06:41:44;101292.95;;;20.56;45.83
50632;BME280;49583;45.590;-122.498;2023-06-22T06:44:18;101291.20;;;20.50;46.02
50632;BME280;49583;45.590;-122.498;2023-06-22T06:46:53;101294.27;;;20.44;46.09
50632;BME280;49583;45.590;-122.498;2023-06-22T06:49:15;101292.66;;;20.37;46.25
50632;BME280;49583;45.590;-122.498;2023-06-22T06:51:28;101292.44;;;20.31;46.35
50632;BME280;49583;45.590;-122.498;2023-06-22T06:53:48;101291.46;;;20.25;46.43
50632;BME280;49583;45.590;-122.498;2023-06-22T06:56:12;101291.52;;;20.20;46.54
50632;BME280;49583;45.590;-122.498;2023-06-22T06:58:24;101289.16;;;20.15;46.72
50632;BME280;49583;45.590;-122.498;2023-06-22T07:00:50;101285.80;;;20.10;46.78
50632;BME280;49583;45.590;-122.498;2023-06-22T07:03:23;101281.22;;;20.06;46.96
50632;BME280;49583;45.590;-122.498;2023-06-22T07:05:56;101282.85;;;20.00;47.13
50632;BME280;49583;45.590;-122.498;2023-06-22T07:08:21;101283.77;;;19.93;47.27
50632;BME280;49583;45.590;-122.498;2023-06-22T07:10:54;101287.25;;;19.85;47.45
50632;BME280;49583;45.590;-122.498;2023-06-22T07:13:27;101283.83;;;19.77;47.64
50632;BME280;49583;45.590;-122.498;2023-06-22T07:15:53;101281.96;;;19.69;47.86
50632;BME280;49583;45.590;-122.498;2023-06-22T07:18:25;101283.27;;;19.64;48.03
50632;BME280;49583;45.590;-122.498;2023-06-22T07:20:39;101283.15;;;19.58;48.20
50632;BME280;49583;45.590;-122.498;2023-06-22T07:23:01;101277.48;;;19.50;48.25
50632;BME280;49583;45.590;-122.498;2023-06-22T07:25:25;101275.81;;;19.44;48.44
50632;BME280;49583;45.590;-122.498;2023-06-22T07:28:02;101276.23;;;19.39;48.69
50632;BME280;49583;45.590;-122.498;2023-06-22T07:30:35;101273.02;;;19.32;48.90
50632;BME280;49583;45.590;-122.498;2023-06-22T07:32:57;101272.59;;;19.26;49.09
50632;BME280;49583;45.590;-122.498;2023-06-22T07:35:14;101273.31;;;19.20;49.21
50632;BME280;49583;45.590;-122.498;2023-06-22T07:37:38;101273.49;;;19.14;49.38
50632;BME280;49583;45.590;-122.498;2023-06-22T07:40:12;101270.75;;;19.08;49.45
50632;BME280;49583;45.590;-122.498;2023-06-22T07:42:31;101270.05;;;19.03;49.67
50632;BME280;49583;45.590;-122.498;2023-06-22T07:45:06;101274.03;;;18.98;49.88
50632;BME280;49583;45.590;-122.498;2023-06-22T07:47:42;101272.63;;;18.92;49.99
50632;BME280;49583;45.590;-122.498;2023-06-22T07:50:01;101272.81;;;18.86;50.04
50632;BME280;49583;45.590;-122.498;2023-06-22T07:52:35;101272.67;;;18.79;50.23
50632;BME280;49583;45.590;-122.498;2023-06-22T07:55:09;101268.10;;;18.73;50.37
50632;BME280;49583;45.590;-122.498;2023-06-22T07:57:22;101271.03;;;18.69;50.56
50632;BME280;49583;45.590;-122.498;2023-06-22T08:00:02;101271.53;;;18.63;50.65
50632;BME280;49583;45.590;-122.498;2023-06-22T08:02:21;101271.55;;;18.58;50.82
50632;BME280;49583;45.590;-122.498;2023-06-22T08:04:40;101272.85;;;18.53;50.87
50632;BME280;49583;45.590;-122.498;2023-06-22T08:07:04;101272.73;;;18.47;50.89
50632;BME280;49583;45.590;-122.498;2023-06-22T08:09:30;101270.43;;;18.40;51.11
50632;BME280;49583;45.590;-122.498;2023-06-22T08:11:55;101269.87;;;18.35;51.29
50632;BME280;49583;45.590;-122.498;2023-06-22T08:14:27;101267.81;;;18.31;51.40
50632;BME280;49583;45.590;-122.498;2023-06-22T08:16:43;101265.61;;;18.26;51.52
50632;BME280;49583;45.590;-122.498;2023-06-22T08:19:17;101264.18;;;18.20;51.67
50632;BME280;49583;45.590;-122.498;2023-06-22T08:21:30;101264.50;;;18.15;51.78
50632;BME280;49583;45.590;-122.498;2023-06-22T08:23:43;101262.30;;;18.08;51.90
50632;BME280;49583;45.590;-122.498;2023-06-22T08:26:13;101261.27;;;18.02;52.02
50632;BME280;49583;45.590;-122.498;2023-06-22T08:28:37;101260.77;;;17.97;52.16
50632;BME280;49583;45.590;-122.498;2023-06-22T08:30:54;101262.60;;;17.93;52.41
50632;BME280;49583;45.590;-122.498;2023-06-22T08:33:17;101262.91;;;17.89;52.60
50632;BME280;49583;45.590;-122.498;2023-06-22T08:35:57;101263.54;;;17.83;52.81
50632;BME280;49583;45.590;-122.498;2023-06-22T08:38:30;101264.88;;;17.77;52.91
50632;BME280;49583;45.590;-122.498;2023-06-22T08:40:54;101263.14;;;17.71;53.05
50632;BME280;49583;45.590;-122.498;2023-06-22T08:43:19;101259.17;;;17.64;53.11
50632;BME280;49583;45.590;-122.498;2023-06-22T08:45:52;101257.79;;;17.59;53.37
50632;BME280;49583;45.590;-122.498;2023-06-22T08:48:08;101253.19;;;17.54;53.54
50632;BME280;49583;45.590;-122.498;2023-06-22T08:50:42;101257.54;;;17.49;53.69
50632;BME280;49583;45.590;-122.498;2023-06-22T08:53:16;101256.16;;;17.44;53.82
50632;BME280;49583;45.590;-122.498;2023-06-22T08:55:33;101257.59;;;17.40;53.85
50632;BME280;49583;45.590;-122.498;2023-06-22T08:58:06;101255.34;;;17.36;54.05
50632;BME280;49583;45.590;-122.498;2023-06-22T09:00:33;101254.08;;;17.33;54.17
50632;BME280;49583;45.590;-122.498;2023-06-22T09:03:06;101251.53;;;17.29;54.29
50632;BME280;49583;45.590;-122.498;2023-06-22T09:05:40;101246.46;;;17.21;54.40
50632;BME280;49583;45.590;-122.498;2023-06-22T09:08:13;101244.77;;;17.15;54.40
50632;BME280;49583;45.590;-122.498;2023-06-22T09:10:36;101245.45;;;17.07;54.60
50632;BME280;49583;45.590;-122.498;2023-06-22T09:13:03;101245.20;;;17.01;54.82
50632;BME280;49583;45.590;-122.498;2023-06-22T09:15:36;101242.00;;;16.93;55.03
50632;BME280;49583;45.590;-122.498;2023-06-22T09:18:08;101238.34;;;16.88;55.19
50632;BME280;49583;45.590;-122.498;2023-06-22T09:20:36;101238.55;;;16.82;55.41
50632;BME280;49583;45.590;-122.498;2023-06-22T09:23:10;101232.98;;;16.76;55.67
50632;BME280;49583;45.590;-122.498;2023-06-22T09:25:23;101232.66;;;16.71;55.75
50632;BME280;49583;45.590;-122.498;2023-06-22T09:27:49;101233.33;;;16.66;55.85
50632;BME280;49583;45.590;-122.498;2023-06-22T09:30:23;101237.88;;;16.61;55.95
50632;BME280;49583;45.590;-122.498;2023-06-22T09:32:39;101242.09;;;16.55;56.09
50632;BME280;49583;45.590;-122.498;2023-06-22T09:35:07;101242.60;;;16.49;56.25
50632;BME280;49583;45.590;-122.498;2023-06-22T09:37:31;101240.98;;;16.44;56.37
50632;BME280;49583;45.590;-122.498;2023-06-22T09:39:45;101241.59;;;16.38;56.43
50632;BME280;49583;45.590;-122.498;2023-06-22T09:41:58;101237.13;;;16.32;56.62
50632;BME280;49583;45.590;-122.498;2023-06-22T09:44:22;101239.68;;;16.26;56.76
50632;BME280;49583;45.590;-122.498;2023-06-22T09:46:49;101242.41;;;16.21;56.94
50632;BME280;49583;45.590;-122.498;2023-06-22T09:49:05;101239.55;;;16.16;57.15
50632;BME280;49583;45.590;-122.498;2023-06-22T09:51:38;101241.15;;;16.11;57.34
50632;BME280;49583;45.590;-122.498;2023-06-22T09:54:01;101240.49;;;16.07;57.50
50632;BME280;49583;45.590;-122.498;2023-06-22T09:56:18;101242.67;;;16.03;57.72
50632;BME280;49583;45.590;-122.498;2023-06-22T09:58:31;101240.75;;;16.00;57.83
50632;BME280;49583;45.590;-122.498;2023-06-22T10:00:53;101235.27;;;15.97;58.08
50632;BME280;49583;45.590;-122.498;2023-06-22T10:03:25;101238.11;;;15.95;58.24
50632;BME280;49583;45.590;-122.498;2023-06-22T10:05:57;101238.61;;;15.90;58.30
50632;BME280;49583;45.590;-122.498;2023-06-22T10:08:16;101236.77;;;15.86;58.42
50632;BME280;49583;45.590;-122.498;2023-06-22T10:10:49;101235.39;;;15.82;58.54
50632;BME280;49583;45.590;-122.498;2023-06-22T10:13:13;101233.08;;;15.77;58.75
50632;BME280;49583;45.590;-122.498;2023-06-22T10:15:45;101234.06;;;15.74;58.79
50632;BME280;49583;45.590;-122.498;2023-06-22T10:18:00;101231.43;;;15.72;58.92
50632;BME280;49583;45.590;-122.498;2023-06-22T10:20:32;101232.22;;;15.69;59.14
50632;BME280;49583;45.590;-122.498;2023-06-22T10:23:06;101222.55;;;15.65;59.55
50632;BME280;49583;45.590;-122.498;2023-06-22T10:25:19;101225.13;;;15.62;59.77
50632;BME280;49583;45.590;-122.498;2023-06-22T10:27:52;101223.73;;;15.59;60.13
50632;BME280;49583;45.590;-122.498;2023-06-22T10:30:25;101219.54;;;15.56;60.34
50632;BME280;49583;45.590;-122.498;2023-06-22T10:33:06;101214.94;;;15.50;60.34
50632;BME280;49583;45.590;-122.498;2023-06-22T10:35:19;101215.08;;;15.47;60.25
50632;BME280;49583;45.590;-122.498;2023-06-22T10:37:31;101216.60;;;15.42;60.18
50632;BME280;49583;45.590;-122.498;2023-06-22T10:39:44;101214.81;;;15.36;60.15
50632;BME280;49583;45.590;-122.498;2023-06-22T10:41:56;101211.92;;;15.30;60.08
50632;BME280;49583;45.590;-122.498;2023-06-22T10:44:09;101210.92;;;15.27;60.24
50632;BME280;49583;45.590;-122.498;2023-06-22T10:46:24;101208.99;;;15.22;60.28
50632;BME280;49583;45.590;-122.498;2023-06-22T10:48:37;101208.02;;;15.20;60.47
50632;BME280;49583;45.590;-122.498;2023-06-22T10:50:51;101205.30;;;15.17;60.61
50632;BME280;49583;45.590;-122.498;2023-06-22T10:53:03;101203.08;;;15.14;60.61
50632;BME280;49583;45.590;-122.498;2023-06-22T10:55:17;101203.04;;;15.12;60.74
50632;BME280;49583;45.590;-122.498;2023-06-22T10:57:29;101196.80;;;15.10;60.83
50632;BME280;49583;45.590;-122.498;2023-06-22T10:59:42;101197.95;;;15.07;60.77
50632;BME280;49583;45.590;-122.498;2023-06-22T11:01:55;101196.00;;;15.02;60.91
50632;BME280;49583;45.590;-122.498;2023-06-22T11:04:08;101193.84;;;14.99;60.89
50632;BME280;49583;45.590;-122.498;2023-06-22T11:06:21;101193.78;;;14.95;60.91
50632;BME280;49583;45.590;-122.498;2023-06-22T11:08:34;101187.92;;;14.91;60.97
50632;BME280;49583;45.590;-122.498;2023-06-22T11:10:48;101188.05;;;14.89;61.07
50632;BME280;49583;45.590;-122.498;2023-06-22T11:13:00;101183.43;;;14.85;61.16
50632;BME280;49583;45.590;-122.498;2023-06-22T11:15:14;101188.06;;;14.84;61.35
50632;BME280;49583;45.590;-122.498;2023-06-22T11:17:27;101185.70;;;14.80;61.36
50632;BME280;49583;45.590;-122.498;2023-06-22T11:19:39;101185.92;;;14.77;61.21
50632;BME280;49583;45.590;-122.498;2023-06-22T11:21:52;101183.08;;;14.71;61.30
50632;BME280;49583;45.590;-122.498;2023-06-22T11:24:06;101179.05;;;14.68;61.46
50632;BME280;49583;45.590;-122.498;2023-06-22T11:26:18;101179.45;;;14.63;61.53
50632;BME280;49583;45.590;-122.498;2023-06-22T11:28:31;101176.52;;;14.57;61.69
50632;BME280;49583;45.590;-122.498;2023-06-22T11:30:44;101178.22;;;14.53;61.74
50632;BME280;49583;45.590;-122.498;2023-06-22T11:32:57;101175.80;;;14.48;61.68
50632;BME280;49583;45.590;-122.498;2023-06-22T11:35:10;101174.01;;;14.44;61.80
50632;BME280;49583;45.590;-122.498;2023-06-22T11:37:23;101172.30;;;14.41;61.93
50632;BME280;49583;45.590;-122.498;2023-06-22T11:39:35;101170.09;;;14.37;61.90
50632;BME280;49583;45.590;-122.498;2023-06-22T11:41:56;101166.88;;;14.33;62.18
50632;BME280;49583;45.590;-122.498;2023-06-22T11:44:09;101167.73;;;14.30;62.20
50632;BME280;49583;45.590;-122.498;2023-06-22T11:46:22;101169.56;;;14.27;62.50
50632;BME280;49583;45.590;-122.498;2023-06-22T11:48:34;101168.04;;;14.24;62.42
50632;BME280;49583;45.590;-122.498;2023-06-22T11:50:47;101169.93;;;14.19;62.44
50632;BME280;49583;45.590;-122.498;2023-06-22T11:53:03;101163.59;;;14.15;62.56
50632;BME280;49583;45.590;-122.498;2023-06-22T11:55:17;101162.89;;;14.12;62.55
50632;BME280;49583;45.590;-122.498;2023-06-22T11:57:30;101159.32;;;14.10;62.64
50632;BME280;49583;45.590;-122.498;2023-06-22T11:59:43;101157.90;;;14.08;62.84
50632;BME280;49583;45.590;-122.498;2023-06-22T12:01:55;101157.39;;;14.06;63.00
50632;BME280;49583;45.590;-122.498;2023-06-22T12:04:08;101157.20;;;14.05;62.92
50632;BME280;49583;45.590;-122.498;2023-06-22T12:06:21;101158.98;;;14.03;63.03
50632;BME280;49583;45.590;-122.498;2023-06-22T12:08:34;101155.50;;;14.02;63.24
50632;BME280;49583;45.590;-122.498;2023-06-22T12:10:48;101153.76;;;14.00;63.21